Time;durP1;ratioP1;P1;durP2;ratioP2;P2;SDS_P1;SDS_P2;PMS_P1;PMS_P2;Temp;Humidity;BMP_temperature;BMP_pressure;BME280_temperature;BME280_humidity;BME280_pressure;Samples;Min_cycle;Max_cycle;Signal;HPM_P1;HPM_P2
2023/04/17 00:00:01;;;;;;;9.20;3.35;;;;;;;13.45;86.19;100733.66;4996602;28;20088;-86
2023/04/17 00:02:28;;;;;;;5.25;3.20;;;;;;;13.48;86.51;100751.69;4996348;28;20037;-86
2023/04/17 00:04:54;;;;;;;5.68;3.63;;;;;;;13.43;86.29;100739.88;4996695;28;20026;-85
2023/04/17 00:07:23;;;;;;;6.78;4.18;;;;;;;13.48;86.59;100745.66;4996321;28;20549;-85
2023/04/17 00:09:48;;;;;;;3.78;2.67;;;;;;;13.54;86.54;100747.03;4996158;28;20025;-85
2023/04/17 00:12:14;;;;;;;9.77;4.13;;;;;;;13.34;86.56;100712.66;4995887;28;20038;-85
2023/04/17 00:14:39;;;;;;;4.18;3.35;;;;;;;13.55;86.60;100746.09;5012479;28;20030;-86
2023/04/17 00:17:05;;;;;;;6.88;4.18;;;;;;;13.50;87.07;100743.78;4996027;28;20026;-86
2023/04/17 00:19:30;;;;;;;5.38;3.78;;;;;;;13.53;87.00;100748.81;5012473;28;20384;-85
2023/04/17 00:21:56;;;;;;;5.90;4.00;;;;;;;13.49;87.62;100742.97;4995850;28;20426;-86
2023/04/17 00:24:21;;;;;;;6.78;3.15;;;;;;;13.51;87.48;100749.81;4995641;28;20033;-85
2023/04/17 00:26:47;;;;;;;5.03;3.63;;;;;;;13.49;87.95;100747.31;4996028;28;20030;-85
2023/04/17 00:29:12;;;;;;;5.95;3.88;;;;;;;13.39;87.92;100731.44;4979257;28;20046;-89
2023/04/17 00:31:38;;;;;;;5.78;3.78;;;;;;;13.40;88.07;100740.91;4995767;28;20500;-85
2023/04/17 00:34:03;;;;;;;5.72;3.53;;;;;;;13.45;88.51;100751.00;4979537;28;20110;-86
2023/04/17 00:36:30;;;;;;;5.40;3.47;;;;;;;13.34;88.92;100733.47;4979700;28;20033;-85
2023/04/17 00:38:56;;;;;;;4.45;3.33;;;;;;;13.35;89.39;100732.53;4979429;28;20026;-86
2023/04/17 00:41:22;;;;;;;5.55;3.15;;;;;;;13.38;89.61;100742.75;4995910;28;20411;-85
2023/04/17 00:43:47;;;;;;;6.07;3.70;;;;;;;13.23;89.38;100720.25;4995494;28;20042;-85
2023/04/17 00:46:13;;;;;;;4.75;3.38;;;;;;;13.39;89.69;100746.19;5012224;28;20095;-85
2023/04/17 00:48:39;;;;;;;5.90;3.60;;;;;;;13.30;90.33;100734.56;4995588;28;20037;-85
2023/04/17 00:51:05;;;;;;;4.82;3.58;;;;;;;13.35;89.74;100742.91;4995802;28;20189;-85
2023/04/17 00:53:31;;;;;;;12.02;4.38;;;;;;;13.28;90.03;100733.00;4995211;28;20022;-85
2023/04/17 00:56:00;;;;;;;7.15;5.25;;;;;;;13.31;90.27;100738.84;4995453;28;20498;-85
2023/04/17 00:58:25;;;;;;;6.07;4.72;;;;;;;13.35;90.94;100745.53;5011723;28;20545;-85
2023/04/17 01:00:51;;;;;;;12.38;4.80;;;;;;;13.34;90.54;100741.25;5011767;28;20022;-85
2023/04/17 01:03:16;;;;;;;6.20;3.90;;;;;;;13.34;90.57;100738.66;4995306;28;20030;-86
2023/04/17 01:05:47;;;;;;;5.35;3.88;;;;;;;13.27;90.26;100716.53;4995358;28;20526;-86
2023/04/17 01:08:12;;;;;;;6.38;4.20;;;;;;;13.28;90.51;100714.81;5011107;28;20037;-85
2023/04/17 01:10:37;;;;;;;7.90;4.32;;;;;;;13.40;89.75;100724.47;4995315;28;20037;-85
2023/04/17 01:13:06;;;;;;;6.97;3.72;;;;;;;13.41;89.84;100734.78;4994817;28;20034;-86
2023/04/17 01:15:32;;;;;;;11.02;3.78;;;;;;;13.34;90.01;100741.25;4995567;28;20033;-85
2023/04/17 01:17:58;;;;;;;5.47;3.65;;;;;;;13.35;89.63;100737.72;4994750;28;20041;-85
2023/04/17 01:20:24;;;;;;;7.68;4.15;;;;;;;13.31;89.62;100725.84;5011081;28;20117;-84
2023/04/17 01:22:52;;;;;;;5.20;3.28;;;;;;;13.28;89.84;100736.44;4994804;28;20033;-86
2023/04/17 01:25:18;;;;;;;5.70;4.15;;;;;;;13.25;90.42;100727.97;4994396;28;20518;-85
2023/04/17 01:27:43;;;;;;;7.85;4.18;;;;;;;13.19;90.33;100732.59;4994480;28;20054;-85
2023/04/17 01:30:09;;;;;;;4.47;3.70;;;;;;;13.00;89.87;100718.13;4994753;28;20479;-85
2023/04/17 01:32:35;;;;;;;20.52;5.68;;;;;;;13.05;90.07;100734.28;5010922;28;20034;-85
2023/04/17 01:35:00;;;;;;;6.68;4.15;;;;;;;12.98;89.69;100735.53;4994617;28;20022;-85
2023/04/17 01:37:26;;;;;;;9.68;6.88;;;;;;;12.89;90.11;100734.34;5010689;28;20026;-85
2023/04/17 01:39:51;;;;;;;8.15;4.35;;;;;;;12.77;89.32;100715.06;4994583;28;20033;-85
2023/04/17 01:42:17;;;;;;;9.10;4.72;;;;;;;12.73;89.32;100728.31;5011166;28;20041;-86
2023/04/17 01:44:42;;;;;;;9.75;5.18;;;;;;;12.57;89.81;100700.63;4994375;28;20033;-85
2023/04/17 01:47:08;;;;;;;7.57;4.95;;;;;;;12.75;89.69;100737.69;5010884;28;20484;-85
2023/04/17 01:49:33;;;;;;;10.52;4.63;;;;;;;12.69;90.12;100732.84;4994148;28;20033;-85
2023/04/17 01:51:59;;;;;;;10.07;5.28;;;;;;;12.70;89.78;100731.94;4978107;28;20030;-85
2023/04/17 01:54:24;;;;;;;11.23;5.57;;;;;;;12.67;89.70;100734.69;4978106;28;20029;-85
2023/04/17 01:56:50;;;;;;;6.80;4.00;;;;;;;12.65;90.40;100720.97;4994398;28;20033;-86
2023/04/17 01:59:15;;;;;;;5.28;3.78;;;;;;;12.60;90.45;100717.81;5010897;28;20088;-85
2023/04/17 02:01:41;;;;;;;9.82;5.85;;;;;;;12.71;90.58;100738.78;4994186;28;20076;-86
2023/04/17 02:04:06;;;;;;;9.73;4.82;;;;;;;12.77;90.46;100742.78;4993905;28;20029;-85
2023/04/17 02:06:32;;;;;;;7.45;4.93;;;;;;;12.75;90.47;100744.63;4977982;28;20021;-86
2023/04/17 02:08:58;;;;;;;5.35;3.55;;;;;;;12.64;90.04;100747.84;5010554;28;20033;-85
2023/04/17 02:11:23;;;;;;;15.20;5.65;;;;;;;12.48;89.93;100721.03;4994066;28;20026;-85
2023/04/17 02:13:49;;;;;;;12.32;5.53;;;;;;;12.51;89.91;100731.28;4993963;28;20037;-85
2023/04/17 02:16:15;;;;;;;9.68;4.95;;;;;;;12.57;89.71;100747.34;4993942;28;20038;-85
2023/04/17 02:18:40;;;;;;;12.43;4.43;;;;;;;12.53;89.91;100747.59;4993683;28;20030;-85
2023/04/17 02:21:06;;;;;;;10.95;5.97;;;;;;;12.33;89.99;100705.41;4993983;28;20415;-86
2023/04/17 02:23:31;;;;;;;10.00;5.75;;;;;;;12.43;90.20;100739.47;5009989;28;20125;-86
2023/04/17 02:25:57;;;;;;;9.32;5.32;;;;;;;12.43;90.25;100738.66;4993768;28;20032;-85
2023/04/17 02:28:22;;;;;;;16.10;5.60;;;;;;;12.42;90.22;100747.34;4993405;28;20058;-85
2023/04/17 02:30:48;;;;;;;7.70;4.53;;;;;;;12.40;90.12;100749.19;4993489;28;20030;-86
2023/04/17 02:33:13;;;;;;;7.57;5.80;;;;;;;12.40;89.63;100759.56;4977099;28;20026;-85
2023/04/17 02:35:39;;;;;;;12.52;6.13;;;;;;;12.42;89.92;100760.31;4977419;28;20520;-85
2023/04/17 02:38:05;;;;;;;10.18;5.90;;;;;;;12.29;89.45;100739.38;4993678;28;20503;-86
2023/04/17 02:40:30;;;;;;;9.15;5.28;;;;;;;12.35;90.24;100752.88;4977563;28;20065;-85
2023/04/17 02:42:56;;;;;;;8.73;6.03;;;;;;;12.41;89.61;100756.91;4993503;28;20423;-85
2023/04/17 02:45:21;;;;;;;18.38;5.35;;;;;;;12.29;89.94;100758.41;4993458;28;20053;-85
2023/04/17 02:47:47;;;;;;;14.10;6.00;;;;;;;12.41;90.66;100763.84;4976869;28;20084;-85
2023/04/17 02:50:12;;;;;;;10.32;7.18;;;;;;;12.18;90.34;100739.97;4993462;28;20041;-85
2023/04/17 02:52:38;;;;;;;6.70;4.60;;;;;;;12.29;90.76;100763.59;4993403;28;20037;-85
2023/04/17 02:55:05;;;;;;;9.15;4.35;;;;;;;12.32;91.18;100765.19;4993670;28;20459;-85
2023/04/17 02:57:31;;;;;;;11.63;5.32;;;;;;;12.34;91.15;100755.53;4993680;28;20109;-85
2023/04/17 02:59:56;;;;;;;11.32;5.93;;;;;;;12.28;91.41;100759.28;4993316;28;20030;-85
2023/04/17 03:02:22;;;;;;;6.85;5.35;;;;;;;12.33;91.43;100759.06;4993073;28;20514;-86
2023/04/17 03:04:49;;;;;;;13.68;5.03;;;;;;;12.36;91.18;100748.50;4993471;28;20501;-85
2023/04/17 03:07:18;;;;;;;9.55;6.15;;;;;;;12.31;90.89;100756.56;4993563;28;20112;-88
2023/04/17 03:09:47;;;;;;;11.55;5.05;;;;;;;12.29;91.21;100758.41;4993893;28;20062;-88
2023/04/17 03:12:13;;;;;;;12.45;6.47;;;;;;;12.08;91.52;100736.19;4993323;28;20036;-87
2023/04/17 03:14:39;;;;;;;8.60;6.03;;;;;;;11.98;91.89;100716.84;4993274;28;20125;-87
2023/04/17 03:17:05;;;;;;;7.68;5.07;;;;;;;12.16;92.24;100743.56;5009346;28;20045;-88
2023/04/17 03:19:30;;;;;;;6.38;5.18;;;;;;;12.01;92.32;100727.06;5009867;28;20484;-88
2023/04/17 03:21:56;;;;;;;10.30;5.10;;;;;;;12.22;92.47;100762.22;4993481;28;20497;-87
2023/04/17 03:24:21;;;;;;;9.95;6.20;;;;;;;12.19;92.63;100749.44;4993090;28;20509;-87
2023/04/17 03:26:47;;;;;;;10.32;6.35;;;;;;;12.12;93.05;100742.06;4992674;28;20030;-88
2023/04/17 03:29:12;;;;;;;8.32;5.85;;;;;;;12.06;93.51;100735.44;5009108;28;20041;-88
2023/04/17 03:31:38;;;;;;;9.25;5.32;;;;;;;12.09;93.57;100742.22;4992871;28;20030;-85
2023/04/17 03:34:03;;;;;;;13.30;6.13;;;;;;;12.01;93.72;100725.31;4993021;28;20404;-85
2023/04/17 03:36:28;;;;;;;8.32;5.60;;;;;;;12.17;93.75;100743.47;4993009;28;20029;-85
2023/04/17 03:38:54;;;;;;;11.57;6.22;;;;;;;12.21;93.26;100745.00;4993121;28;20568;-85
2023/04/17 03:41:20;;;;;;;8.90;3.83;;;;;;;12.14;93.78;100727.25;4993181;28;20479;-85
2023/04/17 03:43:45;;;;;;;7.00;4.63;;;;;;;12.06;93.17;100725.91;4993167;28;20033;-85
2023/04/17 03:46:11;;;;;;;16.45;5.28;;;;;;;12.07;93.14;100732.75;5009071;28;20034;-85
2023/04/17 03:48:36;;;;;;;10.05;5.45;;;;;;;12.15;92.89;100749.66;4979227;28;20043;-85
2023/04/17 03:51:02;;;;;;;16.70;6.03;;;;;;;12.12;92.94;100736.88;4996970;28;20034;-85
2023/04/17 03:53:29;;;;;;;4.78;3.92;;;;;;;12.19;92.65;100753.75;4996624;28;20413;-86
2023/04/17 03:55:55;;;;;;;8.65;5.70;;;;;;;12.21;92.68;100749.34;4997032;28;20834;-86
2023/04/17 03:58:20;;;;;;;8.45;5.47;;;;;;;12.25;92.36;100758.63;4980268;28;20121;-85
2023/04/17 04:00:47;;;;;;;7.57;5.10;;;;;;;12.15;92.52;100744.47;4996070;28;20030;-86
2023/04/17 04:03:13;;;;;;;9.02;5.72;;;;;;;12.21;92.80;100754.53;4997004;28;20048;-86
2023/04/17 04:05:38;;;;;;;7.32;5.30;;;;;;;12.15;92.87;100747.91;4996569;28;20029;-85
2023/04/17 04:08:04;;;;;;;11.10;4.65;;;;;;;12.16;93.44;100756.53;5012809;28;20030;-85
2023/04/17 04:10:31;;;;;;;6.80;5.30;;;;;;;12.11;93.94;100751.59;4996322;28;20025;-85
2023/04/17 04:12:56;;;;;;;10.23;5.97;;;;;;;12.21;93.95;100760.56;4996453;28;20037;-85
2023/04/17 04:15:22;;;;;;;9.40;4.88;;;;;;;12.18;93.78;100752.94;4995766;28;20022;-84
2023/04/17 04:17:47;;;;;;;5.50;4.65;;;;;;;11.99;94.47;100757.41;4995996;28;20069;-85
2023/04/17 04:20:13;;;;;;;8.07;3.78;;;;;;;11.97;94.59;100746.28;4996281;28;20033;-84
2023/04/17 04:22:38;;;;;;;9.13;3.80;;;;;;;11.94;94.45;100746.47;5012372;28;20096;-85
2023/04/17 04:25:05;;;;;;;7.97;4.10;;;;;;;11.97;94.68;100767.03;4996317;28;20041;-85
2023/04/17 04:27:31;;;;;;;8.73;3.70;;;;;;;11.83;95.03;100753.97;4996034;28;20070;-85
2023/04/17 04:29:58;;;;;;;14.63;4.57;;;;;;;11.98;94.67;100769.53;4996101;28;20022;-85
2023/04/17 04:32:24;;;;;;;9.07;4.78;;;;;;;11.91;94.99;100772.56;4996036;28;20570;-85
2023/04/17 04:34:50;;;;;;;8.68;4.13;;;;;;;11.83;95.08;100754.81;5012179;28;20022;-85
2023/04/17 04:37:16;;;;;;;8.05;4.25;;;;;;;11.91;94.66;100759.59;5012136;28;20036;-85
2023/04/17 04:39:42;;;;;;;10.18;4.82;;;;;;;11.96;94.33;100770.53;5011899;28;20026;-86
2023/04/17 04:42:08;;;;;;;9.32;4.50;;;;;;;11.85;94.80;100767.69;4995707;28;20021;-85
2023/04/17 04:44:36;;;;;;;4.60;3.85;;;;;;;11.93;95.07;100774.16;4995857;28;20112;-86
2023/04/17 04:47:01;;;;;;;7.43;4.35;;;;;;;11.92;94.34;100769.88;4995547;28;20076;-84
2023/04/17 04:49:26;;;;;;;9.27;5.18;;;;;;;11.89;94.67;100764.00;4995587;28;20038;-85
2023/04/17 04:51:52;;;;;;;10.02;5.40;;;;;;;11.88;94.83;100746.78;4995458;28;20041;-86
2023/04/17 04:54:17;;;;;;;9.27;6.07;;;;;;;11.88;94.73;100762.31;5011773;28;20133;-84
2023/04/17 04:56:43;;;;;;;8.10;4.63;;;;;;;11.80;95.40;100752.38;4979209;28;20026;-85
2023/04/17 04:59:10;;;;;;;7.63;5.43;;;;;;;11.93;95.90;100768.13;4994163;28;20026;-85
2023/04/17 05:01:35;;;;;;;6.80;5.03;;;;;;;11.94;95.39;100762.00;4995612;28;20022;-85
2023/04/17 05:04:01;;;;;;;9.68;4.32;;;;;;;11.93;95.60;100762.94;4995322;28;20561;-85
2023/04/17 05:06:26;;;;;;;10.38;5.35;;;;;;;12.00;94.95;100772.06;4995346;28;20026;-85
2023/04/17 05:08:52;;;;;;;4.28;3.58;;;;;;;12.05;94.87;100770.91;4995359;28;20025;-85
2023/04/17 05:11:17;;;;;;;8.82;4.80;;;;;;;11.98;94.87;100779.06;4995111;28;20034;-84
2023/04/17 05:13:43;;;;;;;9.60;5.15;;;;;;;12.05;94.15;100785.63;4994719;28;20034;-85
2023/04/17 05:16:08;;;;;;;6.47;5.35;;;;;;;12.03;93.67;100785.72;4995349;28;20033;-84
2023/04/17 05:18:34;;;;;;;8.40;6.05;;;;;;;12.01;93.86;100781.53;5011124;28;20048;-85
2023/04/17 05:20:59;;;;;;;5.60;4.20;;;;;;;12.01;93.21;100773.75;4995375;28;20502;-88
2023/04/17 05:23:27;;;;;;;9.07;6.18;;;;;;;12.10;92.73;100778.47;5011250;28;20124;-88
2023/04/17 05:25:52;;;;;;;7.05;6.00;;;;;;;12.11;92.98;100793.09;4994797;28;20121;-85
2023/04/17 05:28:18;;;;;;;8.07;5.80;;;;;;;12.12;93.15;100796.53;4994064;28;20104;-85
2023/04/17 05:30:44;;;;;;;7.55;4.80;;;;;;;12.14;92.45;100792.91;4994946;28;20041;-85
2023/04/17 05:33:09;;;;;;;10.43;5.78;;;;;;;12.05;92.24;100770.06;4994752;28;20565;-85
2023/04/17 05:35:35;;;;;;;14.68;5.72;;;;;;;12.07;92.20;100784.63;4994675;28;20026;-85
2023/04/17 05:38:00;;;;;;;11.65;5.55;;;;;;;12.13;92.60;100793.00;4994613;28;20037;-85
2023/04/17 05:40:26;;;;;;;5.07;4.15;;;;;;;12.22;92.62;100793.38;4994679;28;20081;-87
2023/04/17 05:42:51;;;;;;;9.52;7.22;;;;;;;12.18;92.24;100786.63;4994502;28;20080;-85
2023/04/17 05:45:17;;;;;;;7.72;5.15;;;;;;;12.24;92.12;100791.50;4994482;28;20030;-85
2023/04/17 05:47:42;;;;;;;12.85;5.65;;;;;;;12.18;91.51;100771.06;5010641;28;20029;-85
2023/04/17 05:50:08;;;;;;;11.68;6.40;;;;;;;12.32;90.96;100793.72;5010873;28;20533;-85
2023/04/17 05:52:34;;;;;;;8.75;5.75;;;;;;;12.29;90.52;100776.56;4994385;28;20034;-86
2023/04/17 05:55:00;;;;;;;8.35;5.68;;;;;;;12.37;90.51;100790.84;4994440;28;20033;-86
2023/04/17 05:57:25;;;;;;;7.70;4.30;;;;;;;12.43;89.90;100793.97;4977795;28;20466;-86
2023/04/17 05:59:51;;;;;;;8.13;5.47;;;;;;;12.39;89.79;100795.06;5010680;28;20037;-85
2023/04/17 06:02:16;;;;;;;9.95;7.03;;;;;;;12.44;89.48;100806.00;5010316;28;20036;-86
2023/04/17 06:04:42;;;;;;;7.03;5.03;;;;;;;12.51;89.12;100809.13;4993888;28;20041;-85
2023/04/17 06:07:09;;;;;;;9.75;5.28;;;;;;;12.46;89.23;100806.75;4994055;28;20029;-88
2023/04/17 06:09:35;;;;;;;8.00;5.82;;;;;;;12.49;89.24;100811.81;4994333;28;20038;-88
2023/04/17 06:12:01;;;;;;;28.38;5.97;;;;;;;12.43;89.15;100801.75;5009848;28;20034;-87
2023/04/17 06:14:26;;;;;;;10.90;5.85;;;;;;;12.50;89.69;100810.06;4994366;28;20060;-88
2023/04/17 06:16:52;;;;;;;9.90;5.30;;;;;;;12.38;89.43;100808.09;4993917;28;20052;-86
2023/04/17 06:19:17;;;;;;;10.20;5.32;;;;;;;12.34;89.42;100808.25;4994342;28;20037;-85
2023/04/17 06:21:43;;;;;;;8.38;5.68;;;;;;;12.29;90.11;100810.28;4993536;28;20030;-85
2023/04/17 06:24:08;;;;;;;11.05;6.90;;;;;;;12.30;89.56;100818.91;4993534;28;20030;-86
2023/04/17 06:26:34;;;;;;;15.95;5.22;;;;;;;12.31;89.65;100825.75;4993270;28;20503;-87
2023/04/17 06:29:00;;;;;;;9.10;5.10;;;;;;;12.30;89.56;100817.16;5010009;28;20418;-85
2023/04/17 06:31:25;;;;;;;8.02;5.40;;;;;;;12.32;89.48;100825.69;4993826;28;20034;-88
2023/04/17 06:33:51;;;;;;;7.80;4.75;;;;;;;12.37;88.87;100835.78;4977671;28;20115;-86
2023/04/17 06:36:16;;;;;;;6.78;3.38;;;;;;;12.32;89.02;100836.06;4993744;28;20084;-86
2023/04/17 06:38:42;;;;;;;7.38;5.72;;;;;;;12.22;89.30;100816.69;5010049;28;20037;-86
2023/04/17 06:41:07;;;;;;;11.13;5.28;;;;;;;12.31;89.95;100834.38;4977084;28;20034;-87
2023/04/17 06:43:33;;;;;;;7.30;5.18;;;;;;;12.26;89.48;100836.38;5009631;28;20037;-85
2023/04/17 06:45:59;;;;;;;9.23;4.55;;;;;;;12.29;89.85;100841.41;4993705;28;20498;-86
2023/04/17 06:48:24;;;;;;;15.25;4.53;;;;;;;12.23;90.22;100841.72;5009948;28;20076;-85
2023/04/17 06:50:50;;;;;;;6.10;4.13;;;;;;;12.14;90.27;100831.00;5009610;28;20034;-86
2023/04/17 06:53:15;;;;;;;7.90;4.05;;;;;;;12.20;90.44;100847.06;4977253;28;20499;-86
2023/04/17 06:55:41;;;;;;;10.68;4.05;;;;;;;12.20;90.54;100852.25;4976952;28;20034;-86
2023/04/17 06:58:07;;;;;;;6.78;5.25;;;;;;;12.22;90.62;100844.41;4993473;28;20033;-85
2023/04/17 07:00:33;;;;;;;13.48;4.93;;;;;;;12.24;90.06;100851.19;4977262;28;20133;-84
2023/04/17 07:02:58;;;;;;;10.05;5.65;;;;;;;12.13;90.07;100840.53;4993482;28;20030;-86
2023/04/17 07:05:24;;;;;;;6.50;4.22;;;;;;;12.13;90.06;100844.88;4993369;28;20526;-86
2023/04/17 07:07:49;;;;;;;6.43;5.05;;;;;;;12.13;90.66;100845.72;5010028;28;20029;-85
2023/04/17 07:10:15;;;;;;;9.23;5.97;;;;;;;12.12;90.57;100844.03;5009386;28;20030;-86
2023/04/17 07:12:40;;;;;;;7.35;5.20;;;;;;;12.23;89.85;100862.47;5010708;28;20026;-85
2023/04/17 07:15:07;;;;;;;7.38;4.80;;;;;;;12.22;90.14;100863.41;4993284;28;20034;-86
2023/04/17 07:17:32;;;;;;;7.07;4.78;;;;;;;12.01;90.72;100834.22;4993317;28;20499;-86
2023/04/17 07:19:58;;;;;;;7.47;6.00;;;;;;;12.14;90.68;100857.75;4993200;28;20034;-85
2023/04/17 07:22:23;;;;;;;8.70;4.63;;;;;;;11.97;91.19;100850.00;5026299;28;20033;-86
2023/04/17 07:24:49;;;;;;;6.95;4.95;;;;;;;12.00;90.71;100863.66;5013518;28;20037;-86
2023/04/17 07:27:14;;;;;;;8.40;5.40;;;;;;;12.05;91.25;100858.22;5012847;28;20080;-88
2023/04/17 07:29:40;;;;;;;5.93;4.28;;;;;;;12.09;91.11;100861.50;4997080;28;20041;-85
2023/04/17 07:32:05;;;;;;;9.80;5.30;;;;;;;12.15;90.39;100879.34;5013350;28;20415;-85
2023/04/17 07:34:33;;;;;;;10.60;5.82;;;;;;;12.00;90.96;100850.69;4996628;28;20057;-87
2023/04/17 07:36:58;;;;;;;7.78;5.13;;;;;;;12.20;90.55;100879.97;4997082;28;20036;-85
2023/04/17 07:39:27;;;;;;;8.05;5.30;;;;;;;12.07;91.26;100875.38;4996366;28;20029;-86
2023/04/17 07:41:52;;;;;;;8.80;4.70;;;;;;;12.04;91.27;100866.94;5013099;28;20034;-86
2023/04/17 07:44:18;;;;;;;7.75;4.65;;;;;;;12.16;90.51;100881.84;5012938;28;20030;-86
2023/04/17 07:46:43;;;;;;;6.82;5.03;;;;;;;12.19;90.13;100880.84;4980485;28;20033;-85
2023/04/17 07:49:09;;;;;;;5.63;4.30;;;;;;;12.18;90.48;100889.56;4997110;28;20025;-85
2023/04/17 07:51:37;;;;;;;6.75;4.18;;;;;;;12.20;90.33;100893.75;4996424;28;20041;-86
2023/04/17 07:54:02;;;;;;;7.85;4.32;;;;;;;12.13;90.42;100891.56;5012382;28;20098;-85
2023/04/17 07:56:28;;;;;;;8.23;5.75;;;;;;;12.14;90.36;100875.91;4980404;28;20034;-86
2023/04/17 07:58:53;;;;;;;5.68;4.70;;;;;;;12.24;89.87;100894.44;4980248;28;20410;-85
2023/04/17 08:01:19;;;;;;;10.88;5.82;;;;;;;12.10;90.22;100876.16;4996432;28;20406;-85
2023/04/17 08:03:45;;;;;;;8.63;6.03;;;;;;;12.29;90.35;100892.44;4996596;28;20502;-86
2023/04/17 08:06:10;;;;;;;13.10;5.90;;;;;;;12.24;90.06;100884.91;4996351;28;20026;-86
2023/04/17 08:08:36;;;;;;;9.13;4.80;;;;;;;12.18;90.08;100885.19;4995947;28;20426;-86
2023/04/17 08:11:02;;;;;;;8.18;4.75;;;;;;;12.27;90.21;100899.47;5012594;28;20910;-85
2023/04/17 08:13:31;;;;;;;5.68;4.25;;;;;;;12.25;90.54;100899.53;4996046;28;20033;-85
2023/04/17 08:15:58;;;;;;;10.02;6.63;;;;;;;12.22;90.88;100904.06;4996330;28;20026;-85
2023/04/17 08:18:24;;;;;;;15.93;4.93;;;;;;;12.24;90.83;100900.47;4996931;28;20157;-86
2023/04/17 08:20:49;;;;;;;7.72;5.10;;;;;;;12.18;90.63;100898.16;4995880;28;20026;-87
2023/04/17 08:23:14;;;;;;;9.30;5.95;;;;;;;12.27;90.28;100899.47;4995720;28;20026;-85
2023/04/17 08:25:40;;;;;;;9.65;5.15;;;;;;;12.18;90.79;100886.97;5012296;28;20414;-85
2023/04/17 08:28:05;;;;;;;7.70;4.88;;;;;;;12.21;91.25;100905.81;4995830;28;20053;-85
2023/04/17 08:30:31;;;;;;;12.05;5.10;;;;;;;12.16;91.39;100896.56;4995816;28;20022;-86
2023/04/17 08:32:56;;;;;;;8.00;5.20;;;;;;;12.17;91.75;100896.50;4995540;28;20034;-85
2023/04/17 08:35:22;;;;;;;13.80;6.45;;;;;;;12.08;91.99;100894.38;4995850;28;20562;-85
2023/04/17 08:37:47;;;;;;;14.48;6.20;;;;;;;12.12;92.97;100901.09;4995544;28;20065;-86
2023/04/17 08:40:13;;;;;;;4.60;3.97;;;;;;;12.18;92.81;100903.34;4995541;28;20025;-85
2023/04/17 08:42:40;;;;;;;8.80;5.28;;;;;;;12.20;92.88;100893.75;4995737;28;20506;-86
2023/04/17 08:45:10;;;;;;;11.20;7.15;;;;;;;12.26;92.15;100898.63;4995556;28;20088;-86
2023/04/17 08:47:37;;;;;;;14.73;6.80;;;;;;;12.25;91.99;100896.09;5011913;28;20026;-86
2023/04/17 08:50:16;;;;;;;8.98;4.82;;;;;;;12.28;91.86;100901.13;4979070;28;20482;-86
2023/04/17 08:52:49;;;;;;;24.58;5.55;;;;;;;12.26;91.85;100890.00;4979490;28;20030;-85
2023/04/17 08:55:16;;;;;;;;;;;;;;;12.41;91.57;100901.34;4996332;28;20045;-86
2023/04/17 08:58:08;;;;;;;11.25;5.53;;;;;;;12.34;91.07;100898.22;5012007;28;19913;-85
2023/04/17 09:00:38;;;;;;;10.30;5.57;;;;;;;12.32;90.85;100906.09;4991288;28;20038;-86
2023/04/17 09:03:06;;;;;;;10.60;4.68;;;;;;;12.23;90.93;100882.38;4995307;28;20475;-85
2023/04/17 09:05:32;;;;;;;8.52;5.75;;;;;;;12.39;89.53;100909.22;4995332;28;20116;-85
2023/04/17 09:08:20;;;;;;;8.85;5.32;;;;;;;12.38;89.00;100904.91;5011610;28;20117;-86
2023/04/17 09:10:47;;;;;;;12.85;5.57;;;;;;;12.40;88.78;100908.31;5011613;28;20403;-85
2023/04/17 09:13:14;;;;;;;8.38;3.92;;;;;;;12.35;89.15;100907.69;4994930;28;20038;-85
2023/04/17 09:15:40;;;;;;;8.15;4.68;;;;;;;12.30;89.92;100902.75;4995241;28;20083;-86
2023/04/17 09:18:23;;;;;;;14.13;5.10;;;;;;;12.33;90.43;100902.59;4995117;28;20029;-86
2023/04/17 09:20:49;;;;;;;;;;;;;;;12.30;89.70;100915.72;5011780;28;20129;-84
2023/04/17 09:23:15;;;;;;;6.75;4.57;;;;;;;12.16;90.82;100914.72;5011290;28;19913;-85
2023/04/17 09:25:40;;;;;;;10.15;6.38;;;;;;;12.08;90.61;100894.38;4994952;28;20021;-87
2023/04/17 09:28:12;;;;;;;10.77;5.10;;;;;;;12.23;90.69;100914.34;4994261;28;20108;-85
2023/04/17 09:30:38;;;;;;;8.00;5.30;;;;;;;12.11;89.90;100899.41;4995321;28;20513;-85
2023/04/17 09:33:04;;;;;;;6.03;4.38;;;;;;;12.23;90.00;100910.91;4995024;28;20029;-86
2023/04/17 09:35:30;;;;;;;7.15;4.32;;;;;;;12.19;90.45;100892.09;4994635;28;20026;-86
2023/04/17 09:37:58;;;;;;;8.18;4.80;;;;;;;12.29;90.34;100903.66;5011023;28;20029;-85
2023/04/17 09:40:24;;;;;;;7.45;4.10;;;;;;;12.34;89.93;100917.22;5010993;28;20026;-85
2023/04/17 09:43:00;;;;;;;7.20;4.20;;;;;;;12.37;90.49;100905.00;4994763;28;20087;-85
2023/04/17 09:45:32;;;;;;;3.30;3.00;;;;;;;12.13;88.68;100882.03;4993707;28;20168;-86
2023/04/17 09:47:57;;;;;;;16.42;5.57;;;;;;;12.11;89.47;100888.22;4995851;28;20121;-86
2023/04/17 09:50:26;;;;;;;6.85;5.05;;;;;;;12.30;89.52;100905.34;4994095;28;20132;-86
2023/04/17 09:52:52;;;;;;;7.00;4.40;;;;;;;12.10;89.49;100877.00;4994706;28;20028;-86
2023/04/17 09:55:22;;;;;;;9.98;5.60;;;;;;;12.09;88.68;100877.06;4994529;28;20506;-88
2023/04/17 09:57:52;;;;;;;6.55;4.20;;;;;;;12.29;88.70;100903.66;5010364;28;20069;-87
2023/04/17 10:00:19;;;;;;;8.60;4.78;;;;;;;12.34;87.73;100903.41;4993882;28;20033;-86
2023/04/17 10:02:45;;;;;;;8.52;4.38;;;;;;;12.17;87.83;100867.97;4993973;28;20053;-85
2023/04/17 10:05:10;;;;;;;7.22;4.68;;;;;;;12.41;87.21;100897.00;4978058;28;20541;-86
2023/04/17 10:07:37;;;;;;;9.20;4.75;;;;;;;12.39;86.27;100893.66;5010194;28;20408;-85
2023/04/17 10:10:08;;;;;;;12.18;5.13;;;;;;;12.49;86.17;100899.19;4994234;28;20114;-85
2023/04/17 10:12:33;;;;;;;5.15;2.63;;;;;;;12.51;86.24;100897.34;4994822;28;20026;-86
2023/04/17 10:14:59;;;;;;;5.38;3.70;;;;;;;12.50;85.60;100895.69;4994091;28;20029;-85
2023/04/17 10:17:30;;;;;;;8.65;4.07;;;;;;;12.50;85.54;100891.34;4993593;28;20045;-85
2023/04/17 10:19:56;;;;;;;5.85;3.72;;;;;;;12.49;85.46;100881.88;4994234;28;20034;-86
2023/04/17 10:22:23;;;;;;;7.47;4.53;;;;;;;12.64;84.73;100893.19;4994006;28;20079;-85
2023/04/17 10:25:11;;;;;;;9.07;5.35;;;;;;;12.59;85.35;100892.59;5011470;28;20057;-86
2023/04/17 10:27:40;;;;;;;4.55;3.47;;;;;;;12.52;85.05;100873.91;5010006;28;20026;-84
2023/04/17 10:30:10;;;;;;;7.47;3.05;;;;;;;12.69;84.99;100893.78;5010024;28;20410;-85
2023/04/17 10:32:36;;;;;;;6.93;4.15;;;;;;;12.70;84.61;100889.44;5009827;28;20026;-85
2023/04/17 10:35:22;;;;;;;6.90;4.38;;;;;;;12.73;84.69;100886.66;4993616;28;20462;-85
2023/04/17 10:37:47;;;;;;;5.35;3.90;;;;;;;12.71;84.69;100878.97;5000476;28;20108;-86
2023/04/17 10:40:23;;;;;;;7.82;4.00;;;;;;;12.70;84.09;100866.91;5011433;28;20033;-86
2023/04/17 10:43:13;;;;;;;7.07;4.53;;;;;;;12.82;84.24;100892.22;4993634;28;20124;-85
2023/04/17 10:45:58;;;;;;;7.45;4.57;;;;;;;12.88;83.85;100884.09;5009853;28;20049;-85
2023/04/17 10:48:33;;;;;;;8.52;5.10;;;;;;;12.79;83.95;100876.81;5010244;28;20034;-85
2023/04/17 10:51:00;;;;;;;6.20;4.57;;;;;;;12.89;83.74;100871.94;5011050;28;20026;-85
2023/04/17 10:53:42;;;;;;;11.40;4.28;;;;;;;12.72;83.84;100838.28;4977294;28;20034;-84
2023/04/17 10:56:08;;;;;;;9.02;4.32;;;;;;;13.02;83.94;100883.31;5009698;28;20057;-86
2023/04/17 10:58:38;;;;;;;5.20;3.92;;;;;;;13.02;83.56;100879.91;4992635;28;20052;-85
2023/04/17 11:01:08;;;;;;;6.22;3.63;;;;;;;13.02;83.42;100865.16;4993218;28;20114;-85
2023/04/17 11:03:36;;;;;;;11.35;5.28;;;;;;;12.98;82.73;100858.47;5009501;28;20034;-85
2023/04/17 11:06:01;;;;;;;5.47;3.85;;;;;;;13.11;83.14;100871.59;4993536;28;20036;-85
2023/04/17 11:08:26;;;;;;;4.95;3.75;;;;;;;13.06;82.83;100865.81;4993063;28;20030;-85
2023/04/17 11:10:53;;;;;;;5.07;3.63;;;;;;;13.10;83.08;100872.53;5009616;28;20376;-84
2023/04/17 11:13:18;;;;;;;4.53;3.08;;;;;;;13.01;83.04;100847.91;4993379;28;20037;-86
2023/04/17 11:15:44;;;;;;;5.35;3.22;;;;;;;13.10;82.84;100856.94;4992916;28;20038;-86
2023/04/17 11:18:09;;;;;;;6.97;3.97;;;;;;;13.18;83.00;100867.75;4993492;28;20034;-86
2023/04/17 11:20:35;;;;;;;4.30;2.95;;;;;;;13.00;82.76;100832.41;5009290;28;20100;-86